Primera, Texas
Current Conditions -  °F | °C
As of 7:52 PM on Sunday 21 Dec 2014 (Local Time) from KHRL Reporting Station
Overcast Overcast  
Wind Chill: 62°   Ceiling: 4200
Heat Index: 62°   Visibility: 7mi
Dew Point: 60°   Wind: 3mph
Humidity: 93%   Direction: 40°NE
Pressure: 29.91"   Gusts: NA
Location:  26.2089°N, 97.6849°W
Report Text: KHRL 220152Z 04003KT 7SM SCT007 OVC042 17/16 A2991 RMK AO2 SLP130 T01670156
Loading
Personal Weather Stations






























Interactive Weather Map New forecast layout! Learn more

10-Day Weather Forecast

Advertisements
Track Severe Weather on mobile